Airfield :
LOGIN :

Register | Disclaimer

   EN    FR    IT 

 










Legend :    VFR   Marginal VFR   IFR   Intensive IFR   Very Intensive IFR
Visi :
Ceiling :
>= 8 km
>= 3000ft
5 to 8 km
1000 to 3000 ft
1500m to 5 km
500 to 1000 ft
800 to 1500m
200 to 500 ft
< 800m
< 200 ft
Symbols :   Thunderstorms  Fog  Heavy snow  Heavy precipitations  Wind > 20 kt
SIGMETs :     Misc.  Thunderstorms  Icing  Turbulence  Mountain Waves  Volcanic Ashes






- Airport Elevation : 194 ft
- IATA code : ANE


LFJR - Angers Marcé

CURRENT METAR :
  • 280430Z AUTO 25005KT 1200 R26/1300U BCFG VV/// 07/07 Q1013

EXPIRED METARs :
  • 280400Z AUTO 26003KT 0600 0450 R26/1100D FG VV/// 08/08 Q1013
  • 280330Z AUTO 23003KT 2300 0600 R26/P2000 BCFG BKN004 BKN009 BKN014 08/08 Q1013
  • 280300Z AUTO 21004KT 190V260 0750 0500 R26/1000U FG OVC004 08/07 Q1013
  • 280230Z AUTO 23005KT 6000 SCT002 OVC006 09/09 Q1013
  • 272200Z AUTO 20003KT 9000 -RA BKN004/// OVC013/// ///TCU 09/09 Q1013
  • 280200Z AUTO 25005KT 3100 1100 R26/P2000 BR OVC003 09/08 Q1013

Expired Forecast.



MET'MAP, your aeronautical weather chart ! - Copyright ORBIFLY December 2007 - Disclaimer

ORBIFLY MET'MAP TEAM :

Programming & Development : Alexandra Zaïnal
Original concept : Baudouin d'Aumeries
Technical & hardware support : Manuel Goepfert
Assistance : Marc-Olivier Méhu




SOURCES & CREDITS :

   NOAA